Time;durP1;ratioP1;P1;durP2;ratioP2;P2;SDS_P1;SDS_P2;PMS_P1;PMS_P2;Temp;Humidity;BMP_temperature;BMP_pressure;BME280_temperature;BME280_humidity;BME280_pressure;Samples;Min_cycle;Max_cycle;Signal;HPM_P1;HPM_P2
2022/11/21 00:01:02;;;;;;;;;2.00;2.00;;;;;;;;5025795;28;11023;-81
2022/11/21 00:03:31;;;;;;;;;5.25;2.50;;;;;;;;5030979;28;11742;-81
2022/11/21 00:05:58;;;;;;;;;3.00;3.00;;;;;;;;5024403;28;11085;-80
2022/11/21 00:08:26;;;;;;;;;3.00;3.00;;;;;;;;5028938;28;10991;-81
2022/11/21 00:10:53;;;;;;;;;3.00;3.00;;;;;;;;5034336;28;11086;-81
2022/11/21 00:13:21;;;;;;;;;7.00;3.00;;;;;;;;5030931;28;11057;-80
2022/11/21 00:15:49;;;;;;;;;3.50;3.50;;;;;;;;5029384;28;11043;-81
2022/11/21 00:18:16;;;;;;;;;2.00;2.00;;;;;;;;5030494;28;11078;-81
2022/11/21 00:20:46;;;;;;;;;2.25;2.25;;;;;;;;5025275;28;11191;-80
2022/11/21 00:23:13;;;;;;;;;7.75;7.75;;;;;;;;5029662;28;10891;-82
2022/11/21 00:25:41;;;;;;;;;3.50;3.00;;;;;;;;5017907;28;11173;-81
2022/11/21 00:28:08;;;;;;;;;5.00;3.25;;;;;;;;5026757;28;11060;-81
2022/11/21 00:30:36;;;;;;;;;7.75;3.00;;;;;;;;5031787;28;10993;-80
2022/11/21 00:33:04;;;;;;;;;5.50;3.25;;;;;;;;5028948;28;11086;-82
2022/11/21 00:35:31;;;;;;;;;3.25;3.00;;;;;;;;5028107;28;12290;-80
2022/11/21 00:38:01;;;;;;;;;3.50;3.50;;;;;;;;5026387;28;11165;-81
2022/11/21 00:40:28;;;;;;;;;5.25;3.00;;;;;;;;5024093;28;11232;-81
2022/11/21 00:42:56;;;;;;;;;6.75;4.00;;;;;;;;5028488;28;11210;-82
2022/11/21 00:45:24;;;;;;;;;8.50;6.00;;;;;;;;5026380;28;11204;-81
2022/11/21 00:47:51;;;;;;;;;3.75;2.75;;;;;;;;5009406;28;11422;-81
2022/11/21 00:50:19;;;;;;;;;3.00;3.00;;;;;;;;5025172;28;11222;-80
2022/11/21 00:52:47;;;;;;;;;3.00;3.00;;;;;;;;5031776;28;11159;-81
2022/11/21 00:55:16;;;;;;;;;4.00;4.00;;;;;;;;5033795;28;11198;-80
2022/11/21 00:57:44;;;;;;;;;3.00;3.00;;;;;;;;5027573;28;11139;-82
2022/11/21 01:00:12;;;;;;;;;4.50;4.00;;;;;;;;5026525;28;11130;-79
2022/11/21 01:02:40;;;;;;;;;7.25;6.00;;;;;;;;5024474;28;12196;-81
2022/11/21 01:05:08;;;;;;;;;4.50;3.00;;;;;;;;5026652;28;11462;-82
2022/11/21 01:07:37;;;;;;;;;2.75;2.75;;;;;;;;5018731;28;11226;-81
2022/11/21 01:10:06;;;;;;;;;3.25;2.00;;;;;;;;5025512;28;11096;-82
2022/11/21 01:12:35;;;;;;;;;3.50;2.75;;;;;;;;5024674;28;11108;-83
2022/11/21 01:15:06;;;;;;;;;3.00;3.00;;;;;;;;5027297;28;11082;-85
2022/11/21 01:17:36;;;;;;;;;6.50;3.25;;;;;;;;5027099;28;11070;-85
2022/11/21 01:20:04;;;;;;;;;2.00;2.00;;;;;;;;5024526;28;11196;-84
2022/11/21 01:22:34;;;;;;;;;2.00;2.00;;;;;;;;5024337;28;11185;-84
2022/11/21 01:25:02;;;;;;;;;3.75;3.00;;;;;;;;5028738;28;11158;-83
2022/11/21 01:27:30;;;;;;;;;2.00;2.00;;;;;;;;5026138;28;11018;-83
2022/11/21 01:29:59;;;;;;;;;5.50;3.00;;;;;;;;5027833;28;11150;-84
2022/11/21 01:32:27;;;;;;;;;2.75;2.25;;;;;;;;5029420;28;11391;-83
2022/11/21 01:34:54;;;;;;;;;2.50;1.00;;;;;;;;5022837;28;10974;-84
2022/11/21 01:37:22;;;;;;;;;2.00;1.25;;;;;;;;5023538;28;10897;-83
2022/11/21 01:39:51;;;;;;;;;2.75;2.75;;;;;;;;5028500;28;10901;-83
2022/11/21 01:42:18;;;;;;;;;6.75;3.00;;;;;;;;5027932;28;10967;-83
2022/11/21 01:44:52;;;;;;;;;3.00;2.00;;;;;;;;5024068;28;11183;-84
2022/11/21 01:47:22;;;;;;;;;4.75;3.50;;;;;;;;5023174;28;11086;-83
2022/11/21 01:49:51;;;;;;;;;5.50;2.50;;;;;;;;5026397;28;11145;-84
2022/11/21 01:52:22;;;;;;;;;3.50;2.50;;;;;;;;5029991;28;11020;-83
2022/11/21 01:54:55;;;;;;;;;4.25;3.00;;;;;;;;5028554;28;10989;-83
2022/11/21 01:57:27;;;;;;;;;2.50;2.50;;;;;;;;5026818;28;11790;-84
2022/11/21 01:59:58;;;;;;;;;4.00;3.00;;;;;;;;5025107;28;11074;-84
2022/11/21 02:02:30;;;;;;;;;2.00;2.00;;;;;;;;5028372;28;10917;-83
2022/11/21 02:04:59;;;;;;;;;3.00;3.00;;;;;;;;5028732;28;10858;-83
2022/11/21 02:07:28;;;;;;;;;4.25;3.00;;;;;;;;5022439;28;11010;-83
2022/11/21 02:09:58;;;;;;;;;3.25;3.25;;;;;;;;5023542;28;10965;-84
2022/11/21 02:12:29;;;;;;;;;6.75;3.75;;;;;;;;5031452;28;10899;-83
2022/11/21 02:14:57;;;;;;;;;2.50;2.00;;;;;;;;5025946;28;10965;-83
2022/11/21 02:17:28;;;;;;;;;2.50;2.50;;;;;;;;5028904;28;11149;-83
2022/11/21 02:19:58;;;;;;;;;6.00;4.00;;;;;;;;5028396;28;11592;-84
2022/11/21 02:22:38;;;;;;;;;4.00;2.50;;;;;;;;5010859;28;11047;-84
2022/11/21 02:25:10;;;;;;;;;5.00;3.00;;;;;;;;5025332;28;11088;-84
2022/11/21 02:27:38;;;;;;;;;3.00;1.50;;;;;;;;5031842;28;11472;-84
2022/11/21 02:30:08;;;;;;;;;3.00;2.25;;;;;;;;5035481;28;11141;-84
2022/11/21 02:32:38;;;;;;;;;2.50;2.50;;;;;;;;5032045;28;11077;-83
2022/11/21 02:35:06;;;;;;;;;4.00;2.00;;;;;;;;5025988;28;11164;-83
2022/11/21 02:37:35;;;;;;;;;1.25;1.25;;;;;;;;5031897;28;11072;-84
2022/11/21 02:40:06;;;;;;;;;4.00;2.00;;;;;;;;5033341;28;10988;-84
2022/11/21 02:42:37;;;;;;;;;3.25;2.25;;;;;;;;5034693;28;11324;-83
2022/11/21 02:45:10;;;;;;;;;2.75;2.00;;;;;;;;5029561;28;11153;-84
2022/11/21 02:47:39;;;;;;;;;4.00;1.00;;;;;;;;5033714;28;10986;-84
2022/11/21 02:50:12;;;;;;;;;3.00;3.00;;;;;;;;5031587;28;11060;-84
2022/11/21 02:52:40;;;;;;;;;3.50;2.00;;;;;;;;5027763;28;11074;-85
2022/11/21 02:55:10;;;;;;;;;5.50;1.50;;;;;;;;5024793;28;11023;-84
2022/11/21 02:57:39;;;;;;;;;4.00;2.00;;;;;;;;5033039;28;10906;-83
2022/11/21 03:00:08;;;;;;;;;3.50;2.75;;;;;;;;5030981;28;11045;-84
2022/11/21 03:02:36;;;;;;;;;2.25;2.25;;;;;;;;5028705;28;10984;-84
2022/11/21 03:05:05;;;;;;;;;3.50;2.00;;;;;;;;5029380;28;10985;-84
2022/11/21 03:07:32;;;;;;;;;3.50;2.00;;;;;;;;5044398;28;11071;-84
2022/11/21 03:10:00;;;;;;;;;1.00;1.00;;;;;;;;5023251;28;10942;-84
2022/11/21 03:12:27;;;;;;;;;3.50;2.75;;;;;;;;5030349;28;11689;-84
2022/11/21 03:14:56;;;;;;;;;3.00;1.25;;;;;;;;5032071;28;10822;-85
2022/11/21 03:17:24;;;;;;;;;3.00;2.00;;;;;;;;5024013;28;10914;-84
2022/11/21 03:19:53;;;;;;;;;3.00;3.00;;;;;;;;5029964;28;10738;-85
2022/11/21 03:22:20;;;;;;;;;2.50;2.50;;;;;;;;5026128;28;10838;-84
2022/11/21 03:24:48;;;;;;;;;5.25;2.50;;;;;;;;5026466;28;10808;-84
2022/11/21 03:27:16;;;;;;;;;3.00;2.00;;;;;;;;5033019;28;10870;-84
2022/11/21 03:29:43;;;;;;;;;3.00;3.00;;;;;;;;5028411;28;10704;-84
2022/11/21 03:32:13;;;;;;;;;3.00;2.00;;;;;;;;5025082;28;10808;-85
2022/11/21 03:34:41;;;;;;;;;6.00;2.25;;;;;;;;5029523;28;10890;-85
2022/11/21 03:37:08;;;;;;;;;3.00;3.00;;;;;;;;5028042;28;10841;-85
2022/11/21 03:39:36;;;;;;;;;2.00;2.00;;;;;;;;5025263;28;10795;-85
2022/11/21 03:42:04;;;;;;;;;3.75;3.75;;;;;;;;5026012;28;10751;-84
2022/11/21 03:44:32;;;;;;;;;3.50;3.50;;;;;;;;5027401;28;10684;-84
2022/11/21 03:47:00;;;;;;;;;6.25;5.00;;;;;;;;5025968;28;10898;-84
2022/11/21 03:49:29;;;;;;;;;4.50;3.00;;;;;;;;5023513;28;10995;-84
2022/11/21 03:51:56;;;;;;;;;4.00;3.75;;;;;;;;5026291;28;11014;-84
2022/11/21 03:54:24;;;;;;;;;6.75;3.00;;;;;;;;5031865;28;11053;-83
2022/11/21 03:56:52;;;;;;;;;2.75;2.75;;;;;;;;5027829;28;10990;-83
2022/11/21 03:59:19;;;;;;;;;2.25;2.25;;;;;;;;5028509;28;10913;-83
2022/11/21 04:01:47;;;;;;;;;9.00;3.00;;;;;;;;5026990;28;10930;-82
2022/11/21 04:04:14;;;;;;;;;3.50;3.50;;;;;;;;5028259;28;10962;-83
2022/11/21 04:06:44;;;;;;;;;6.00;3.25;;;;;;;;5027816;28;11832;-84
2022/11/21 04:09:12;;;;;;;;;5.00;2.00;;;;;;;;5029274;28;11029;-84
2022/11/21 04:11:39;;;;;;;;;3.25;2.75;;;;;;;;5029269;28;10964;-84
2022/11/21 04:14:07;;;;;;;;;4.00;2.75;;;;;;;;5029602;28;10998;-84
2022/11/21 04:16:35;;;;;;;;;5.50;3.00;;;;;;;;5027610;28;10868;-84
2022/11/21 04:19:03;;;;;;;;;3.75;1.00;;;;;;;;5030005;28;10929;-84
2022/11/21 04:21:30;;;;;;;;;2.50;2.50;;;;;;;;5029828;28;11580;-84
2022/11/21 04:24:00;;;;;;;;;2.00;2.00;;;;;;;;5026022;28;10908;-84
2022/11/21 04:26:27;;;;;;;;;4.00;4.00;;;;;;;;5033512;28;10966;-84
2022/11/21 04:28:57;;;;;;;;;3.00;3.00;;;;;;;;5026331;28;10743;-84
2022/11/21 04:31:24;;;;;;;;;1.25;1.25;;;;;;;;5030273;28;10776;-84
2022/11/21 04:33:52;;;;;;;;;3.50;2.25;;;;;;;;5027358;28;10718;-83
2022/11/21 04:36:19;;;;;;;;;3.00;3.00;;;;;;;;5031435;28;10764;-84
2022/11/21 04:38:47;;;;;;;;;7.25;3.00;;;;;;;;5033435;28;10780;-84
2022/11/21 04:41:16;;;;;;;;;2.25;2.25;;;;;;;;5029182;28;10699;-82
2022/11/21 04:43:43;;;;;;;;;5.00;3.00;;;;;;;;5028272;28;10713;-84
2022/11/21 04:46:11;;;;;;;;;5.25;5.25;;;;;;;;5027346;28;10982;-84
2022/11/21 04:48:39;;;;;;;;;11.50;10.00;;;;;;;;5031989;28;10835;-85
2022/11/21 04:51:06;;;;;;;;;10.50;8.00;;;;;;;;5023983;28;10946;-83
2022/11/21 04:53:34;;;;;;;;;9.75;8.25;;;;;;;;5030722;28;10922;-84
2022/11/21 04:56:04;;;;;;;;;7.25;6.75;;;;;;;;5029599;28;10852;-84
2022/11/21 04:58:33;;;;;;;;;8.00;4.50;;;;;;;;5029812;28;10816;-84
2022/11/21 05:01:07;;;;;;;;;7.00;5.25;;;;;;;;5027437;28;10951;-84
2022/11/21 05:03:34;;;;;;;;;4.00;4.00;;;;;;;;5028763;28;10735;-84
2022/11/21 05:06:02;;;;;;;;;3.50;2.75;;;;;;;;5027575;28;11719;-84
2022/11/21 05:08:30;;;;;;;;;5.25;3.00;;;;;;;;5038663;28;10661;-84
2022/11/21 05:13:44;;;;;;;;;6.75;4.50;;;;;;;;5025599;28;10821;-84
2022/11/21 05:16:11;;;;;;;;;7.50;3.00;;;;;;;;5024878;28;10693;-83
2022/11/21 05:18:39;;;;;;;;;3.75;3.75;;;;;;;;5025258;28;10759;-84
2022/11/21 05:21:07;;;;;;;;;1.75;1.75;;;;;;;;5009028;28;10847;-84
2022/11/21 05:23:34;;;;;;;;;5.25;4.00;;;;;;;;5022261;28;10731;-83
2022/11/21 05:26:02;;;;;;;;;2.50;2.50;;;;;;;;5031772;28;10843;-84
2022/11/21 05:28:31;;;;;;;;;3.00;3.00;;;;;;;;5027749;28;10698;-84
2022/11/21 05:31:01;;;;;;;;;3.75;2.00;;;;;;;;5032242;28;10775;-84
2022/11/21 05:33:28;;;;;;;;;4.00;2.00;;;;;;;;5028351;28;10825;-84
2022/11/21 05:35:56;;;;;;;;;3.50;3.00;;;;;;;;5024042;28;10767;-84
2022/11/21 05:38:23;;;;;;;;;6.25;4.00;;;;;;;;5024782;28;10874;-85
2022/11/21 05:40:52;;;;;;;;;5.50;5.50;;;;;;;;5033946;28;10913;-84
2022/11/21 05:46:07;;;;;;;;;7.75;6.00;;;;;;;;5029334;28;10910;-84
2022/11/21 05:48:35;;;;;;;;;7.75;4.00;;;;;;;;5027736;28;10976;-84
2022/11/21 05:51:03;;;;;;;;;3.75;3.00;;;;;;;;5024956;28;11084;-82
2022/11/21 05:53:31;;;;;;;;;4.00;4.00;;;;;;;;5013534;28;10954;-83
2022/11/21 05:56:02;;;;;;;;;7.00;6.25;;;;;;;;5029382;28;11054;-84
2022/11/21 05:58:30;;;;;;;;;8.00;4.00;;;;;;;;5025142;28;10815;-84
2022/11/21 06:00:58;;;;;;;;;8.00;6.25;;;;;;;;5030608;28;10894;-84
2022/11/21 06:03:26;;;;;;;;;3.00;3.00;;;;;;;;5028200;28;10982;-84
2022/11/21 06:06:01;;;;;;;;;8.50;7.00;;;;;;;;5029742;28;11146;-83
2022/11/21 06:08:33;;;;;;;;;10.50;7.25;;;;;;;;5032583;28;11369;-83
2022/11/21 06:11:01;;;;;;;;;13.00;9.00;;;;;;;;5031868;28;12023;-84
2022/11/21 06:13:29;;;;;;;;;10.00;8.00;;;;;;;;5033169;28;11261;-84
2022/11/21 06:16:00;;;;;;;;;9.00;4.75;;;;;;;;5029284;28;11258;-84
2022/11/21 06:18:34;;;;;;;;;12.25;10.25;;;;;;;;5035015;28;11443;-83
2022/11/21 06:21:02;;;;;;;;;11.25;11.25;;;;;;;;5026006;28;11485;-83
2022/11/21 06:23:31;;;;;;;;;13.00;13.00;;;;;;;;5030142;28;11566;-84
2022/11/21 06:25:59;;;;;;;;;18.75;14.50;;;;;;;;5033633;28;11486;-84
2022/11/21 06:28:27;;;;;;;;;18.25;15.00;;;;;;;;5034653;28;11529;-84
2022/11/21 06:30:54;;;;;;;;;17.25;13.25;;;;;;;;5032890;28;11508;-84
2022/11/21 06:33:22;;;;;;;;;14.75;14.75;;;;;;;;5008021;28;11473;-83
2022/11/21 06:35:51;;;;;;;;;19.75;17.75;;;;;;;;5026531;28;11469;-83
2022/11/21 06:38:19;;;;;;;;;23.75;15.50;;;;;;;;5028230;28;11537;-82
2022/11/21 06:40:47;;;;;;;;;16.50;14.00;;;;;;;;5029504;28;11523;-84
2022/11/21 06:43:14;;;;;;;;;13.75;13.75;;;;;;;;5034728;28;11537;-83
2022/11/21 06:45:43;;;;;;;;;14.75;13.00;;;;;;;;5029669;28;11472;-84
2022/11/21 06:48:10;;;;;;;;;21.75;18.25;;;;;;;;5031646;28;11481;-87
2022/11/21 06:50:38;;;;;;;;;18.75;14.50;;;;;;;;5033399;28;11416;-84
2022/11/21 06:53:07;;;;;;;;;22.75;18.50;;;;;;;;5031742;28;11491;-84
2022/11/21 06:55:35;;;;;;;;;16.50;15.25;;;;;;;;5029266;28;11530;-84
2022/11/21 06:58:03;;;;;;;;;30.00;24.00;;;;;;;;5017435;28;11513;-84
2022/11/21 07:00:31;;;;;;;;;19.50;15.75;;;;;;;;5030553;28;12221;-84
2022/11/21 07:03:01;;;;;;;;;12.50;12.00;;;;;;;;5036764;28;11504;-84
2022/11/21 07:05:30;;;;;;;;;20.00;14.50;;;;;;;;5025782;28;11435;-83
2022/11/21 07:07:59;;;;;;;;;16.75;13.25;;;;;;;;5031048;28;11632;-83
2022/11/21 07:10:29;;;;;;;;;23.50;19.00;;;;;;;;5032772;28;11541;-81
2022/11/21 07:15:42;;;;;;;;;23.00;18.25;;;;;;;;5031449;28;11441;-83
2022/11/21 07:18:10;;;;;;;;;20.75;19.25;;;;;;;;5025086;28;11477;-83
2022/11/21 07:20:38;;;;;;;;;28.00;20.25;;;;;;;;5027855;28;11516;-83
2022/11/21 07:23:06;;;;;;;;;25.50;19.50;;;;;;;;5035151;28;11530;-81
2022/11/21 07:25:35;;;;;;;;;22.00;19.50;;;;;;;;5028974;28;11484;-82
2022/11/21 07:28:03;;;;;;;;;20.00;19.50;;;;;;;;5024629;28;11654;-82
2022/11/21 07:30:31;;;;;;;;;20.00;18.25;;;;;;;;5030596;28;12260;-82
2022/11/21 07:32:59;;;;;;;;;22.50;17.25;;;;;;;;5034871;28;11520;-83
2022/11/21 07:35:26;;;;;;;;;19.00;17.75;;;;;;;;5034471;28;11656;-83
2022/11/21 07:37:54;;;;;;;;;19.00;17.75;;;;;;;;5028535;28;11481;-83
2022/11/21 07:40:22;;;;;;;;;21.00;19.50;;;;;;;;5029481;28;11510;-81
2022/11/21 07:42:52;;;;;;;;;23.75;14.00;;;;;;;;5012932;28;11462;-81
2022/11/21 07:45:20;;;;;;;;;17.25;15.00;;;;;;;;5027522;28;11501;-81
2022/11/21 07:47:48;;;;;;;;;10.25;10.25;;;;;;;;5022099;28;11515;-81
2022/11/21 07:50:15;;;;;;;;;23.25;22.50;;;;;;;;5025488;28;11726;-82
2022/11/21 07:52:43;;;;;;;;;25.00;23.75;;;;;;;;5029061;28;11796;-81
2022/11/21 07:55:11;;;;;;;;;18.00;17.50;;;;;;;;5029796;28;11488;-75
2022/11/21 07:57:46;;;;;;;;;21.75;18.50;;;;;;;;5016369;28;11461;-80
2022/11/21 08:00:18;;;;;;;;;18.25;18.25;;;;;;;;5031663;28;11529;-83
2022/11/21 08:02:45;;;;;;;;;29.75;21.25;;;;;;;;5031636;28;11467;-81
2022/11/21 08:05:16;;;;;;;;;21.75;19.00;;;;;;;;5028329;28;11619;-79
2022/11/21 08:07:44;;;;;;;;;22.50;19.25;;;;;;;;5028203;28;11583;-82
2022/11/21 08:10:11;;;;;;;;;25.50;21.25;;;;;;;;5028750;28;11484;-81
2022/11/21 08:12:39;;;;;;;;;25.25;22.50;;;;;;;;5024224;28;11670;-79
2022/11/21 08:15:07;;;;;;;;;21.75;21.75;;;;;;;;5029293;28;11508;-77
2022/11/21 08:17:37;;;;;;;;;24.75;19.50;;;;;;;;5003927;28;11512;-81
2022/11/21 08:20:06;;;;;;;;;19.00;18.25;;;;;;;;5021257;28;11480;-79
2022/11/21 08:22:37;;;;;;;;;22.75;18.50;;;;;;;;5022805;28;11506;-74
2022/11/21 08:25:06;;;;;;;;;20.75;17.25;;;;;;;;5023071;28;11628;-75
2022/11/21 08:27:33;;;;;;;;;17.00;13.75;;;;;;;;5024846;28;11560;-78
2022/11/21 08:30:01;;;;;;;;;21.00;16.75;;;;;;;;5029129;28;12327;-75
2022/11/21 08:32:28;;;;;;;;;23.75;21.50;;;;;;;;5030520;28;11466;-81
2022/11/21 08:34:58;;;;;;;;;18.00;17.75;;;;;;;;5024696;28;11498;-74
2022/11/21 08:37:26;;;;;;;;;18.00;17.75;;;;;;;;5025479;28;11589;-76
2022/11/21 08:39:54;;;;;;;;;18.25;18.25;;;;;;;;5027561;28;11507;-76
2022/11/21 08:42:22;;;;;;;;;21.00;19.50;;;;;;;;5026749;28;11526;-75
2022/11/21 08:44:49;;;;;;;;;19.50;17.50;;;;;;;;5027297;28;11497;-74
2022/11/21 08:47:17;;;;;;;;;15.50;15.50;;;;;;;;5031406;28;11500;-80
2022/11/21 08:49:44;;;;;;;;;18.00;17.50;;;;;;;;5029353;28;11501;-76
2022/11/21 08:52:16;;;;;;;;;18.25;14.75;;;;;;;;5028606;28;11571;-82
2022/11/21 08:54:44;;;;;;;;;21.25;19.25;;;;;;;;5025897;28;12320;-77
2022/11/21 08:57:11;;;;;;;;;18.75;17.00;;;;;;;;5021934;28;11496;-80
2022/11/21 08:59:39;;;;;;;;;21.25;14.75;;;;;;;;5024622;28;11494;-76
2022/11/21 09:02:07;;;;;;;;;20.00;20.00;;;;;;;;5017715;28;11592;-76
2022/11/21 09:04:34;;;;;;;;;16.25;15.75;;;;;;;;5023159;28;11504;-76
2022/11/21 09:07:03;;;;;;;;;15.25;15.25;;;;;;;;5018791;28;11504;-76
2022/11/21 09:09:32;;;;;;;;;19.50;16.75;;;;;;;;5024920;28;11619;-76
2022/11/21 09:12:01;;;;;;;;;20.00;17.25;;;;;;;;5025535;28;11495;-77
2022/11/21 09:19:59;;;;;;;;;14.25;12.50;;;;;;;;5018874;28;11431;-76
2022/11/21 09:22:26;;;;;;;;;16.50;15.00;;;;;;;;5021092;28;11498;-77
2022/11/21 09:24:55;;;;;;;;;13.50;13.50;;;;;;;;5028242;28;11481;-77
2022/11/21 09:27:23;;;;;;;;;14.00;13.50;;;;;;;;5033163;28;11613;-78
2022/11/21 09:29:50;;;;;;;;;15.75;12.50;;;;;;;;5028267;28;11202;-76
2022/11/21 09:32:20;;;;;;;;;11.75;11.50;;;;;;;;5017719;28;11204;-77
2022/11/21 09:34:47;;;;;;;;;15.25;12.25;;;;;;;;5027849;28;12043;-81
2022/11/21 09:37:16;;;;;;;;;13.75;13.75;;;;;;;;5034126;28;11290;-81
2022/11/21 09:39:43;;;;;;;;;15.00;13.00;;;;;;;;5025815;28;11143;-81
2022/11/21 09:42:32;;;;;;;;;17.50;14.25;;;;;;;;5030348;28;11014;-78
2022/11/21 09:45:05;;;;;;;;;15.25;13.00;;;;;;;;5035159;28;11108;-75
2022/11/21 09:47:33;;;;;;;;;13.25;12.25;;;;;;;;5027544;28;11109;-77
2022/11/21 09:50:03;;;;;;;;;14.25;13.75;;;;;;;;5026532;28;11253;-77
2022/11/21 09:52:37;;;;;;;;;17.00;11.50;;;;;;;;5027302;28;11271;-77
2022/11/21 09:55:08;;;;;;;;;13.50;9.25;;;;;;;;5031263;28;11805;-77
2022/11/21 09:57:37;;;;;;;;;10.25;10.25;;;;;;;;5036726;28;11152;-76
2022/11/21 10:00:14;;;;;;;;;10.75;9.25;;;;;;;;5029231;28;10957;-77
2022/11/21 10:02:42;;;;;;;;;10.00;9.00;;;;;;;;5024008;28;11012;-76
2022/11/21 10:05:14;;;;;;;;;11.75;10.00;;;;;;;;5022464;28;10942;-77
2022/11/21 10:07:43;;;;;;;;;9.75;7.50;;;;;;;;5008070;28;10963;-78
2022/11/21 10:10:21;;;;;;;;;9.50;9.50;;;;;;;;5024390;28;10988;-77
2022/11/21 10:13:05;;;;;;;;;6.25;4.25;;;;;;;;5024703;28;10946;-77
2022/11/21 10:15:42;;;;;;;;;9.50;6.25;;;;;;;;5023107;28;10935;-78
2022/11/21 10:18:26;;;;;;;;;8.75;8.00;;;;;;;;5024322;28;10720;-78
2022/11/21 10:21:02;;;;;;;;;10.50;8.75;;;;;;;;5002947;28;11054;-78
2022/11/21 10:23:52;;;;;;;;;13.75;9.75;;;;;;;;5025070;28;10736;-79
2022/11/21 10:26:23;;;;;;;;;16.75;9.75;;;;;;;;5028379;28;10861;-79
2022/11/21 10:28:55;;;;;;;;;10.00;10.00;;;;;;;;5023919;28;10817;-80
2022/11/21 10:31:24;;;;;;;;;9.00;9.00;;;;;;;;5028305;28;10748;-80
2022/11/21 10:33:53;;;;;;;;;11.75;8.00;;;;;;;;5008197;28;10779;-80
2022/11/21 10:36:27;;;;;;;;;12.25;11.50;;;;;;;;5027510;28;10914;-76
2022/11/21 10:39:00;;;;;;;;;11.25;8.00;;;;;;;;5025579;28;10700;-77
2022/11/21 10:41:39;;;;;;;;;19.00;11.75;;;;;;;;5033179;28;10770;-77
2022/11/21 10:47:01;;;;;;;;;11.50;10.00;;;;;;;;5024591;28;10779;-77
2022/11/21 10:49:33;;;;;;;;;10.00;10.00;;;;;;;;5022391;28;10539;-76
2022/11/21 10:52:07;;;;;;;;;9.00;7.50;;;;;;;;5021461;28;10535;-77
2022/11/21 10:55:12;;;;;;;;;10.75;8.25;;;;;;;;5013099;28;10627;-77
2022/11/21 10:57:44;;;;;;;;;6.75;6.75;;;;;;;;5001483;28;10634;-77
2022/11/21 11:00:23;;;;;;;;;9.25;8.00;;;;;;;;5021655;28;10606;-77
2022/11/21 11:03:04;;;;;;;;;9.00;7.25;;;;;;;;5022081;28;10654;-77
2022/11/21 11:05:33;;;;;;;;;5.00;5.00;;;;;;;;5000989;28;10642;-78
2022/11/21 11:08:03;;;;;;;;;9.50;7.75;;;;;;;;5018167;28;11717;-75
2022/11/21 11:10:33;;;;;;;;;8.25;6.00;;;;;;;;5021220;28;11215;-79
2022/11/21 11:15:56;;;;;;;;;2.00;2.00;;;;;;;;5025573;28;11204;-77
2022/11/21 11:18:25;;;;;;;;;10.50;5.00;;;;;;;;5003058;28;10528;-79
2022/11/21 11:20:53;;;;;;;;;7.00;7.00;;;;;;;;5004319;28;10487;-76
2022/11/21 11:23:27;;;;;;;;;8.75;7.25;;;;;;;;5008371;28;10620;-77
2022/11/21 11:25:57;;;;;;;;;7.25;7.25;;;;;;;;5011644;28;10855;-76
2022/11/21 11:28:26;;;;;;;;;3.25;3.25;;;;;;;;5028251;28;10574;-78
2022/11/21 11:30:55;;;;;;;;;8.50;5.50;;;;;;;;5006011;28;10543;-78
2022/11/21 11:33:34;;;;;;;;;10.25;8.00;;;;;;;;5029379;28;10636;-77
2022/11/21 11:36:16;;;;;;;;;11.25;8.00;;;;;;;;5022614;28;10693;-80
2022/11/21 11:38:46;;;;;;;;;8.25;7.00;;;;;;;;5024240;28;10798;-77
2022/11/21 11:47:29;;;;;;;;;8.00;5.00;;;;;;;;5004351;28;10540;-77
2022/11/21 11:50:14;;;;;;;;;6.00;4.75;;;;;;;;5009671;28;10472;-83
2022/11/21 11:52:50;;;;;;;;;7.75;5.75;;;;;;;;5026057;28;11217;-84
2022/11/21 11:55:23;;;;;;;;;5.25;4.75;;;;;;;;5027697;28;10621;-82
2022/11/21 11:57:55;;;;;;;;;9.50;8.00;;;;;;;;5025038;28;11166;-81
2022/11/21 12:00:31;;;;;;;;;6.00;4.50;;;;;;;;5022244;28;10479;-83
2022/11/21 12:03:03;;;;;;;;;15.25;8.00;;;;;;;;5011209;28;10528;-86
2022/11/21 12:05:32;;;;;;;;;7.00;4.50;;;;;;;;5028258;28;10523;-85
2022/11/21 12:08:15;;;;;;;;;4.25;4.00;;;;;;;;5026768;28;10366;-80
2022/11/21 12:13:37;;;;;;;;;4.75;4.75;;;;;;;;5026982;28;10574;-80
2022/11/21 12:16:09;;;;;;;;;3.00;3.00;;;;;;;;5010757;28;10636;-86
2022/11/21 12:18:44;;;;;;;;;5.25;4.25;;;;;;;;5030638;28;10438;-84
2022/11/21 12:21:14;;;;;;;;;9.25;6.00;;;;;;;;5027849;28;10468;-82
2022/11/21 12:23:46;;;;;;;;;4.50;4.25;;;;;;;;5025471;28;10456;-82
2022/11/21 12:26:28;;;;;;;;;5.00;5.00;;;;;;;;5020352;28;10310;-81
2022/11/21 12:29:07;;;;;;;;;5.25;5.25;;;;;;;;5002641;28;10477;-76
2022/11/21 12:31:46;;;;;;;;;5.50;3.50;;;;;;;;5023102;28;10605;-75
2022/11/21 12:34:24;;;;;;;;;4.50;4.50;;;;;;;;5026276;28;10502;-77
2022/11/21 12:36:56;;;;;;;;;4.00;4.00;;;;;;;;5006867;28;10660;-76
2022/11/21 12:40:02;;;;;;;;;7.00;4.75;;;;;;;;5002230;28;10548;-79
2022/11/21 12:42:50;;;;;;;;;5.50;3.75;;;;;;;;5019853;28;10577;-77
2022/11/21 12:45:35;;;;;;;;;5.00;5.00;;;;;;;;5024338;28;10550;-77
2022/11/21 12:54:44;;;;;;;;;10.25;8.25;;;;;;;;5006756;28;10593;-81
2022/11/21 12:57:13;;;;;;;;;6.00;6.00;;;;;;;;5005256;28;10628;-77
2022/11/21 12:59:57;;;;;;;;;8.50;4.25;;;;;;;;5003278;28;10599;-75
2022/11/21 13:02:33;;;;;;;;;11.25;10.00;;;;;;;;5021908;28;10523;-75
2022/11/21 13:05:09;;;;;;;;;8.00;8.00;;;;;;;;5000463;28;10729;-74
2022/11/21 13:07:37;;;;;;;;;9.50;5.00;;;;;;;;5019322;28;11563;-76
2022/11/21 13:10:06;;;;;;;;;12.25;10.00;;;;;;;;5020981;28;10665;-75
2022/11/21 13:12:40;;;;;;;;;9.25;7.75;;;;;;;;5021728;28;10750;-74
2022/11/21 13:15:18;;;;;;;;;11.50;6.75;;;;;;;;5023095;28;10707;-75
2022/11/21 13:17:51;;;;;;;;;7.75;7.00;;;;;;;;5029416;28;10558;-75
2022/11/21 13:20:26;;;;;;;;;5.00;5.00;;;;;;;;5020248;28;10514;-74
2022/11/21 13:22:58;;;;;;;;;7.00;3.00;;;;;;;;5021052;28;10640;-76
2022/11/21 13:25:47;;;;;;;;;8.75;7.00;;;;;;;;5020497;28;10521;-76
2022/11/21 13:28:32;;;;;;;;;4.75;4.00;;;;;;;;5022561;28;10558;-77
2022/11/21 13:31:02;;;;;;;;;4.50;3.75;;;;;;;;5019849;28;10630;-76
2022/11/21 13:33:48;;;;;;;;;1.75;1.75;;;;;;;;5007254;28;10495;-78
2022/11/21 13:36:34;;;;;;;;;4.00;4.00;;;;;;;;5004391;28;10429;-76
2022/11/21 13:39:27;;;;;;;;;7.00;4.00;;;;;;;;5021893;28;10446;-76
2022/11/21 13:44:51;;;;;;;;;5.00;3.00;;;;;;;;5021221;28;10378;-76
2022/11/21 13:47:45;;;;;;;;;5.00;3.25;;;;;;;;5017737;28;10490;-75
2022/11/21 13:50:26;;;;;;;;;5.00;3.00;;;;;;;;5022543;28;10412;-76
2022/11/21 13:53:01;;;;;;;;;0.00;0.00;;;;;;;;5004633;28;10455;-77
2022/11/21 13:55:46;;;;;;;;;6.50;3.00;;;;;;;;5021606;28;10261;-76
2022/11/21 13:58:24;;;;;;;;;3.50;3.50;;;;;;;;4999221;28;10425;-76
2022/11/21 14:01:09;;;;;;;;;4.75;2.00;;;;;;;;5028039;28;11327;-75
2022/11/21 14:04:16;;;;;;;;;7.00;3.00;;;;;;;;5020732;28;10466;-76
2022/11/21 14:06:46;;;;;;;;;3.00;3.00;;;;;;;;4977542;28;10566;-77
2022/11/21 14:09:25;;;;;;;;;5.25;3.50;;;;;;;;5016187;28;10604;-76
2022/11/21 14:11:56;;;;;;;;;4.00;2.25;;;;;;;;5002058;28;10619;-76
2022/11/21 14:14:33;;;;;;;;;3.50;2.00;;;;;;;;4999344;28;10587;-76
2022/11/21 14:17:21;;;;;;;;;3.75;3.75;;;;;;;;5023091;28;10511;-77
2022/11/21 14:19:49;;;;;;;;;2.75;2.00;;;;;;;;5018283;28;10635;-76
2022/11/21 14:22:27;;;;;;;;;3.00;3.00;;;;;;;;5022500;28;10851;-76
2022/11/21 14:24:56;;;;;;;;;4.50;2.00;;;;;;;;5025713;28;11402;-77
2022/11/21 14:27:31;;;;;;;;;4.25;4.25;;;;;;;;5025181;28;10506;-76
2022/11/21 14:29:59;;;;;;;;;3.00;3.00;;;;;;;;5024896;28;10668;-76
2022/11/21 14:32:28;;;;;;;;;5.50;3.75;;;;;;;;5023466;28;10772;-79
2022/11/21 14:35:11;;;;;;;;;6.50;4.50;;;;;;;;5005951;28;11420;-79
2022/11/21 14:37:43;;;;;;;;;3.00;3.00;;;;;;;;5024923;28;10696;-78
2022/11/21 14:40:14;;;;;;;;;4.00;2.00;;;;;;;;5030370;28;10738;-79
2022/11/21 14:42:42;;;;;;;;;3.25;2.25;;;;;;;;5004397;28;10717;-79
2022/11/21 14:45:18;;;;;;;;;4.00;3.00;;;;;;;;5024900;28;10768;-79
2022/11/21 14:47:52;;;;;;;;;3.50;2.25;;;;;;;;5026626;28;10756;-79
2022/11/21 14:50:25;;;;;;;;;9.50;6.75;;;;;;;;5022323;28;10692;-80
2022/11/21 14:52:57;;;;;;;;;3.25;3.25;;;;;;;;5024714;28;10988;-81
2022/11/21 14:55:27;;;;;;;;;1.00;1.00;;;;;;;;5007986;28;10832;-77
2022/11/21 14:57:55;;;;;;;;;6.25;3.75;;;;;;;;5024876;28;10852;-77
2022/11/21 15:00:25;;;;;;;;;5.25;3.00;;;;;;;;5027210;28;10916;-76
2022/11/21 15:02:55;;;;;;;;;3.00;3.00;;;;;;;;5022256;28;10705;-76
2022/11/21 15:05:29;;;;;;;;;3.00;2.00;;;;;;;;5025683;28;10838;-76
2022/11/21 15:07:59;;;;;;;;;2.00;2.00;;;;;;;;5025916;28;10676;-77
2022/11/21 15:10:32;;;;;;;;;2.25;2.25;;;;;;;;5021706;28;10765;-76
2022/11/21 15:13:03;;;;;;;;;1.00;1.00;;;;;;;;5023245;28;10840;-77
2022/11/21 15:15:34;;;;;;;;;2.00;2.00;;;;;;;;5027889;28;10800;-77
2022/11/21 15:18:03;;;;;;;;;2.00;2.00;;;;;;;;5019770;28;10874;-78
2022/11/21 15:20:31;;;;;;;;;3.00;3.00;;;;;;;;5004190;28;10832;-76
2022/11/21 15:23:02;;;;;;;;;2.00;2.00;;;;;;;;5023521;28;10801;-75
2022/11/21 15:25:31;;;;;;;;;3.00;3.00;;;;;;;;5024499;28;11675;-77
2022/11/21 15:28:14;;;;;;;;;3.25;2.00;;;;;;;;5003511;28;10931;-78
2022/11/21 15:30:42;;;;;;;;;3.00;1.75;;;;;;;;5016563;28;10648;-77
2022/11/21 15:33:11;;;;;;;;;2.00;2.00;;;;;;;;5006049;28;10743;-78
2022/11/21 15:35:50;;;;;;;;;3.00;2.00;;;;;;;;5024140;28;10739;-78